sensor_id;sensor_type;location;lat;lon;timestamp;P1;durP1;ratioP1;P2;durP2;ratioP2
1174;SDS011;576;48.418;10.074;2023-04-25T00:01:50;0.50;;;0.50;;
1174;SDS011;576;48.418;10.074;2023-04-25T00:04:18;0.60;;;0.60;;
1174;SDS011;576;48.418;10.074;2023-04-25T00:06:48;0.60;;;0.60;;
1174;SDS011;576;48.418;10.074;2023-04-25T00:09:16;0.63;;;0.57;;
1174;SDS011;576;48.418;10.074;2023-04-25T00:11:46;0.60;;;0.60;;
1174;SDS011;576;48.418;10.074;2023-04-25T00:14:14;0.50;;;0.50;;
1174;SDS011;576;48.418;10.074;2023-04-25T00:16:43;0.60;;;0.60;;
1174;SDS011;576;48.418;10.074;2023-04-25T00:19:11;0.63;;;0.63;;
1174;SDS011;576;48.418;10.074;2023-04-25T00:21:40;0.60;;;0.60;;
1174;SDS011;576;48.418;10.074;2023-04-25T00:24:08;0.60;;;0.40;;
1174;SDS011;576;48.418;10.074;2023-04-25T00:26:36;0.63;;;0.63;;
1174;SDS011;576;48.418;10.074;2023-04-25T00:29:06;0.50;;;0.50;;
1174;SDS011;576;48.418;10.074;2023-04-25T00:31:34;0.43;;;0.40;;
1174;SDS011;576;48.418;10.074;2023-04-25T00:34:02;0.50;;;0.50;;
1174;SDS011;576;48.418;10.074;2023-04-25T00:36:30;0.40;;;0.40;;
1174;SDS011;576;48.418;10.074;2023-04-25T00:38:59;0.53;;;0.53;;
1174;SDS011;576;48.418;10.074;2023-04-25T00:41:27;0.57;;;0.57;;
1174;SDS011;576;48.418;10.074;2023-04-25T00:43:58;0.60;;;0.60;;
1174;SDS011;576;48.418;10.074;2023-04-25T00:46:29;0.60;;;0.60;;
1174;SDS011;576;48.418;10.074;2023-04-25T00:48:58;0.57;;;0.57;;
1174;SDS011;576;48.418;10.074;2023-04-25T00:51:26;0.63;;;0.60;;
1174;SDS011;576;48.418;10.074;2023-04-25T00:53:55;0.50;;;0.50;;
1174;SDS011;576;48.418;10.074;2023-04-25T00:56:23;0.70;;;0.70;;
1174;SDS011;576;48.418;10.074;2023-04-25T00:58:52;0.73;;;0.70;;
1174;SDS011;576;48.418;10.074;2023-04-25T01:01:22;0.50;;;0.40;;
1174;SDS011;576;48.418;10.074;2023-04-25T01:03:51;0.43;;;0.43;;
1174;SDS011;576;48.418;10.074;2023-04-25T01:06:22;0.60;;;0.60;;
1174;SDS011;576;48.418;10.074;2023-04-25T01:08:51;0.80;;;0.67;;
1174;SDS011;576;48.418;10.074;2023-04-25T01:11:19;0.60;;;0.60;;
1174;SDS011;576;48.418;10.074;2023-04-25T01:13:48;0.60;;;0.57;;
1174;SDS011;576;48.418;10.074;2023-04-25T01:16:16;0.60;;;0.60;;
1174;SDS011;576;48.418;10.074;2023-04-25T01:18:45;0.70;;;0.60;;
1174;SDS011;576;48.418;10.074;2023-04-25T01:21:15;0.50;;;0.40;;
1174;SDS011;576;48.418;10.074;2023-04-25T01:23:45;0.77;;;0.77;;
1174;SDS011;576;48.418;10.074;2023-04-25T01:26:15;0.57;;;0.57;;
1174;SDS011;576;48.418;10.074;2023-04-25T01:28:43;1.80;;;0.60;;
1174;SDS011;576;48.418;10.074;2023-04-25T01:31:12;0.57;;;0.57;;
1174;SDS011;576;48.418;10.074;2023-04-25T01:33:42;0.63;;;0.63;;
1174;SDS011;576;48.418;10.074;2023-04-25T01:36:11;0.60;;;0.60;;
1174;SDS011;576;48.418;10.074;2023-04-25T01:38:42;0.90;;;0.60;;
1174;SDS011;576;48.418;10.074;2023-04-25T01:41:10;0.93;;;0.60;;
1174;SDS011;576;48.418;10.074;2023-04-25T01:43:38;0.80;;;0.70;;
1174;SDS011;576;48.418;10.074;2023-04-25T01:46:07;0.60;;;0.60;;
1174;SDS011;576;48.418;10.074;2023-04-25T01:48:35;0.60;;;0.60;;
1174;SDS011;576;48.418;10.074;2023-04-25T01:51:03;0.70;;;0.70;;
1174;SDS011;576;48.418;10.074;2023-04-25T01:53:32;0.53;;;0.53;;
1174;SDS011;576;48.418;10.074;2023-04-25T01:56:04;0.80;;;0.70;;
1174;SDS011;576;48.418;10.074;2023-04-25T01:58:34;0.73;;;0.73;;
1174;SDS011;576;48.418;10.074;2023-04-25T02:01:05;0.70;;;0.70;;
1174;SDS011;576;48.418;10.074;2023-04-25T02:03:41;0.87;;;0.70;;
1174;SDS011;576;48.418;10.074;2023-04-25T02:06:18;1.03;;;0.90;;
1174;SDS011;576;48.418;10.074;2023-04-25T02:08:47;0.60;;;0.60;;
1174;SDS011;576;48.418;10.074;2023-04-25T02:11:18;0.67;;;0.67;;
1174;SDS011;576;48.418;10.074;2023-04-25T02:13:56;0.50;;;0.50;;
1174;SDS011;576;48.418;10.074;2023-04-25T02:16:40;0.60;;;0.60;;
1174;SDS011;576;48.418;10.074;2023-04-25T02:19:10;1.63;;;0.70;;
1174;SDS011;576;48.418;10.074;2023-04-25T02:21:38;0.53;;;0.53;;
1174;SDS011;576;48.418;10.074;2023-04-25T02:24:07;0.73;;;0.60;;
1174;SDS011;576;48.418;10.074;2023-04-25T02:26:37;0.70;;;0.70;;
1174;SDS011;576;48.418;10.074;2023-04-25T02:29:07;0.60;;;0.60;;
1174;SDS011;576;48.418;10.074;2023-04-25T02:31:36;0.67;;;0.60;;
1174;SDS011;576;48.418;10.074;2023-04-25T02:34:04;0.60;;;0.60;;
1174;SDS011;576;48.418;10.074;2023-04-25T02:36:35;0.60;;;0.60;;
1174;SDS011;576;48.418;10.074;2023-04-25T02:39:03;0.67;;;0.53;;
1174;SDS011;576;48.418;10.074;2023-04-25T02:41:31;0.93;;;0.87;;
1174;SDS011;576;48.418;10.074;2023-04-25T02:44:00;0.63;;;0.63;;
1174;SDS011;576;48.418;10.074;2023-04-25T02:46:29;0.50;;;0.40;;
1174;SDS011;576;48.418;10.074;2023-04-25T02:49:05;0.70;;;0.70;;
1174;SDS011;576;48.418;10.074;2023-04-25T02:51:34;0.60;;;0.60;;
1174;SDS011;576;48.418;10.074;2023-04-25T02:54:02;0.70;;;0.60;;
1174;SDS011;576;48.418;10.074;2023-04-25T02:56:36;0.57;;;0.57;;
1174;SDS011;576;48.418;10.074;2023-04-25T02:59:11;0.50;;;0.50;;
1174;SDS011;576;48.418;10.074;2023-04-25T03:01:39;0.50;;;0.50;;
1174;SDS011;576;48.418;10.074;2023-04-25T03:04:07;0.60;;;0.60;;
1174;SDS011;576;48.418;10.074;2023-04-25T03:06:36;0.53;;;0.53;;
1174;SDS011;576;48.418;10.074;2023-04-25T03:09:04;0.83;;;0.80;;
1174;SDS011;576;48.418;10.074;2023-04-25T03:11:32;0.40;;;0.40;;
1174;SDS011;576;48.418;10.074;2023-04-25T03:14:00;0.83;;;0.83;;
1174;SDS011;576;48.418;10.074;2023-04-25T03:16:30;0.70;;;0.70;;
1174;SDS011;576;48.418;10.074;2023-04-25T03:18:58;0.80;;;0.80;;
1174;SDS011;576;48.418;10.074;2023-04-25T03:21:27;0.60;;;0.60;;
1174;SDS011;576;48.418;10.074;2023-04-25T03:23:57;0.67;;;0.60;;
1174;SDS011;576;48.418;10.074;2023-04-25T03:26:25;0.70;;;0.70;;
1174;SDS011;576;48.418;10.074;2023-04-25T03:28:53;0.50;;;0.50;;
1174;SDS011;576;48.418;10.074;2023-04-25T03:31:22;0.60;;;0.57;;
1174;SDS011;576;48.418;10.074;2023-04-25T03:33:52;0.70;;;0.60;;
1174;SDS011;576;48.418;10.074;2023-04-25T03:36:21;0.50;;;0.50;;
1174;SDS011;576;48.418;10.074;2023-04-25T03:38:49;0.57;;;0.50;;
1174;SDS011;576;48.418;10.074;2023-04-25T03:41:19;0.80;;;0.80;;
1174;SDS011;576;48.418;10.074;2023-04-25T03:43:52;1.23;;;0.70;;
1174;SDS011;576;48.418;10.074;2023-04-25T03:46:21;0.60;;;0.60;;
1174;SDS011;576;48.418;10.074;2023-04-25T03:48:49;0.77;;;0.77;;
1174;SDS011;576;48.418;10.074;2023-04-25T03:51:22;0.57;;;0.57;;
1174;SDS011;576;48.418;10.074;2023-04-25T03:53:52;0.50;;;0.50;;
1174;SDS011;576;48.418;10.074;2023-04-25T03:56:40;0.60;;;0.60;;
1174;SDS011;576;48.418;10.074;2023-04-25T03:59:16;0.50;;;0.50;;
1174;SDS011;576;48.418;10.074;2023-04-25T04:01:45;0.57;;;0.57;;
1174;SDS011;576;48.418;10.074;2023-04-25T04:04:13;0.77;;;0.77;;
1174;SDS011;576;48.418;10.074;2023-04-25T04:06:44;0.67;;;0.67;;
1174;SDS011;576;48.418;10.074;2023-04-25T04:09:17;0.70;;;0.70;;
1174;SDS011;576;48.418;10.074;2023-04-25T04:11:46;0.70;;;0.70;;
1174;SDS011;576;48.418;10.074;2023-04-25T04:14:15;0.70;;;0.70;;
1174;SDS011;576;48.418;10.074;2023-04-25T04:16:46;0.50;;;0.50;;
1174;SDS011;576;48.418;10.074;2023-04-25T04:19:14;0.70;;;0.70;;
1174;SDS011;576;48.418;10.074;2023-04-25T04:21:57;0.60;;;0.60;;
1174;SDS011;576;48.418;10.074;2023-04-25T04:24:26;0.70;;;0.70;;
1174;SDS011;576;48.418;10.074;2023-04-25T04:26:59;0.73;;;0.70;;
1174;SDS011;576;48.418;10.074;2023-04-25T04:29:32;0.60;;;0.60;;
1174;SDS011;576;48.418;10.074;2023-04-25T04:32:15;0.60;;;0.60;;
1174;SDS011;576;48.418;10.074;2023-04-25T04:34:43;0.97;;;0.60;;
1174;SDS011;576;48.418;10.074;2023-04-25T04:37:16;0.80;;;0.80;;
1174;SDS011;576;48.418;10.074;2023-04-25T04:39:44;0.57;;;0.50;;
1174;SDS011;576;48.418;10.074;2023-04-25T04:42:33;0.60;;;0.60;;
1174;SDS011;576;48.418;10.074;2023-04-25T04:45:25;0.60;;;0.53;;
1174;SDS011;576;48.418;10.074;2023-04-25T04:48:08;0.60;;;0.60;;
1174;SDS011;576;48.418;10.074;2023-04-25T04:50:54;0.50;;;0.50;;
1174;SDS011;576;48.418;10.074;2023-04-25T04:53:42;1.80;;;0.80;;
1174;SDS011;576;48.418;10.074;2023-04-25T04:56:29;1.33;;;0.60;;
1174;SDS011;576;48.418;10.074;2023-04-25T04:59:33;0.60;;;0.60;;
1174;SDS011;576;48.418;10.074;2023-04-25T05:02:20;1.10;;;1.00;;
1174;SDS011;576;48.418;10.074;2023-04-25T05:05:07;0.80;;;0.80;;
1174;SDS011;576;48.418;10.074;2023-04-25T05:08:15;0.70;;;0.70;;
1174;SDS011;576;48.418;10.074;2023-04-25T05:10:53;0.70;;;0.70;;
1174;SDS011;576;48.418;10.074;2023-04-25T05:13:31;0.60;;;0.60;;
1174;SDS011;576;48.418;10.074;2023-04-25T05:16:12;0.70;;;0.70;;
1174;SDS011;576;48.418;10.074;2023-04-25T05:18:56;0.90;;;0.90;;
1174;SDS011;576;48.418;10.074;2023-04-25T05:21:35;0.60;;;0.60;;
1174;SDS011;576;48.418;10.074;2023-04-25T05:24:22;0.67;;;0.67;;
1174;SDS011;576;48.418;10.074;2023-04-25T05:27:21;1.00;;;0.97;;
1174;SDS011;576;48.418;10.074;2023-04-25T05:30:11;0.70;;;0.63;;
1174;SDS011;576;48.418;10.074;2023-04-25T05:33:12;0.63;;;0.63;;
1174;SDS011;576;48.418;10.074;2023-04-25T05:35:41;0.90;;;0.60;;
1174;SDS011;576;48.418;10.074;2023-04-25T05:38:10;0.60;;;0.50;;
1174;SDS011;576;48.418;10.074;2023-04-25T05:41:04;1.03;;;0.93;;
1174;SDS011;576;48.418;10.074;2023-04-25T05:43:48;0.53;;;0.53;;
1174;SDS011;576;48.418;10.074;2023-04-25T05:46:24;0.70;;;0.70;;
1174;SDS011;576;48.418;10.074;2023-04-25T05:49:12;0.83;;;0.70;;
1174;SDS011;576;48.418;10.074;2023-04-25T05:52:01;0.43;;;0.43;;
1174;SDS011;576;48.418;10.074;2023-04-25T05:54:47;0.60;;;0.60;;
1174;SDS011;576;48.418;10.074;2023-04-25T05:57:21;0.60;;;0.60;;
1174;SDS011;576;48.418;10.074;2023-04-25T05:59:53;0.70;;;0.70;;
1174;SDS011;576;48.418;10.074;2023-04-25T06:02:26;0.90;;;0.90;;
1174;SDS011;576;48.418;10.074;2023-04-25T06:04:55;0.70;;;0.70;;
1174;SDS011;576;48.418;10.074;2023-04-25T06:07:23;1.00;;;0.50;;
1174;SDS011;576;48.418;10.074;2023-04-25T06:09:51;0.40;;;0.40;;
1174;SDS011;576;48.418;10.074;2023-04-25T06:12:19;0.80;;;0.70;;
1174;SDS011;576;48.418;10.074;2023-04-25T06:14:49;0.60;;;0.50;;
1174;SDS011;576;48.418;10.074;2023-04-25T06:17:18;0.70;;;0.70;;
1174;SDS011;576;48.418;10.074;2023-04-25T06:19:48;0.80;;;0.70;;
1174;SDS011;576;48.418;10.074;2023-04-25T06:22:17;0.70;;;0.70;;
1174;SDS011;576;48.418;10.074;2023-04-25T06:24:45;0.80;;;0.70;;
1174;SDS011;576;48.418;10.074;2023-04-25T06:27:13;0.73;;;0.70;;
1174;SDS011;576;48.418;10.074;2023-04-25T06:29:42;0.70;;;0.70;;
1174;SDS011;576;48.418;10.074;2023-04-25T06:32:10;0.60;;;0.60;;
1174;SDS011;576;48.418;10.074;2023-04-25T06:34:41;0.70;;;0.70;;
1174;SDS011;576;48.418;10.074;2023-04-25T06:37:09;0.80;;;0.80;;
1174;SDS011;576;48.418;10.074;2023-04-25T06:39:37;0.83;;;0.80;;
1174;SDS011;576;48.418;10.074;2023-04-25T06:42:06;1.00;;;0.90;;
1174;SDS011;576;48.418;10.074;2023-04-25T06:44:49;0.70;;;0.70;;
1174;SDS011;576;48.418;10.074;2023-04-25T06:47:18;0.63;;;0.63;;
1174;SDS011;576;48.418;10.074;2023-04-25T06:49:49;0.60;;;0.60;;
1174;SDS011;576;48.418;10.074;2023-04-25T06:52:19;0.60;;;0.60;;
1174;SDS011;576;48.418;10.074;2023-04-25T06:54:47;0.60;;;0.60;;
1174;SDS011;576;48.418;10.074;2023-04-25T06:57:50;1.00;;;0.80;;
1174;SDS011;576;48.418;10.074;2023-04-25T07:00:40;0.80;;;0.80;;
1174;SDS011;576;48.418;10.074;2023-04-25T07:03:09;0.83;;;0.70;;
1174;SDS011;576;48.418;10.074;2023-04-25T07:05:38;0.50;;;0.50;;
1174;SDS011;576;48.418;10.074;2023-04-25T07:08:07;0.60;;;0.60;;
1174;SDS011;576;48.418;10.074;2023-04-25T07:10:36;0.73;;;0.60;;
1174;SDS011;576;48.418;10.074;2023-04-25T07:13:04;0.97;;;0.97;;
1174;SDS011;576;48.418;10.074;2023-04-25T07:15:32;0.50;;;0.50;;
1174;SDS011;576;48.418;10.074;2023-04-25T07:18:01;0.60;;;0.60;;
1174;SDS011;576;48.418;10.074;2023-04-25T07:20:30;0.60;;;0.60;;
1174;SDS011;576;48.418;10.074;2023-04-25T07:23:01;0.80;;;0.80;;
1174;SDS011;576;48.418;10.074;2023-04-25T07:25:29;0.50;;;0.50;;
1174;SDS011;576;48.418;10.074;2023-04-25T07:27:57;0.80;;;0.60;;
1174;SDS011;576;48.418;10.074;2023-04-25T07:30:26;0.50;;;0.50;;
1174;SDS011;576;48.418;10.074;2023-04-25T07:32:54;0.70;;;0.70;;
1174;SDS011;576;48.418;10.074;2023-04-25T07:35:23;0.60;;;0.60;;
1174;SDS011;576;48.418;10.074;2023-04-25T07:37:51;0.70;;;0.67;;
1174;SDS011;576;48.418;10.074;2023-04-25T07:40:21;0.73;;;0.67;;
1174;SDS011;576;48.418;10.074;2023-04-25T07:42:54;0.70;;;0.70;;
1174;SDS011;576;48.418;10.074;2023-04-25T07:45:30;1.17;;;0.70;;
1174;SDS011;576;48.418;10.074;2023-04-25T07:47:58;0.73;;;0.73;;
1174;SDS011;576;48.418;10.074;2023-04-25T07:50:28;0.70;;;0.70;;
1174;SDS011;576;48.418;10.074;2023-04-25T07:52:57;0.90;;;0.90;;
1174;SDS011;576;48.418;10.074;2023-04-25T07:55:32;1.50;;;0.90;;
1174;SDS011;576;48.418;10.074;2023-04-25T07:58:08;2.30;;;1.30;;
1174;SDS011;576;48.418;10.074;2023-04-25T08:00:39;1.97;;;1.87;;
1174;SDS011;576;48.418;10.074;2023-04-25T08:03:40;2.63;;;1.80;;
1174;SDS011;576;48.418;10.074;2023-04-25T08:06:15;2.10;;;1.60;;
1174;SDS011;576;48.418;10.074;2023-04-25T08:08:55;1.60;;;1.40;;
1174;SDS011;576;48.418;10.074;2023-04-25T08:11:33;2.33;;;1.73;;
1174;SDS011;576;48.418;10.074;2023-04-25T08:14:01;1.70;;;1.60;;
1174;SDS011;576;48.418;10.074;2023-04-25T08:16:29;1.57;;;1.30;;
1174;SDS011;576;48.418;10.074;2023-04-25T08:18:58;1.93;;;1.77;;
1174;SDS011;576;48.418;10.074;2023-04-25T08:21:27;1.60;;;1.50;;
1174;SDS011;576;48.418;10.074;2023-04-25T08:23:58;3.43;;;1.77;;
1174;SDS011;576;48.418;10.074;2023-04-25T08:26:29;2.10;;;1.90;;
1174;SDS011;576;48.418;10.074;2023-04-25T08:28:59;1.77;;;1.67;;
1174;SDS011;576;48.418;10.074;2023-04-25T08:31:27;2.40;;;1.77;;
1174;SDS011;576;48.418;10.074;2023-04-25T08:33:59;2.00;;;1.90;;
1174;SDS011;576;48.418;10.074;2023-04-25T08:36:37;1.73;;;1.53;;
1174;SDS011;576;48.418;10.074;2023-04-25T08:39:29;1.77;;;1.67;;
1174;SDS011;576;48.418;10.074;2023-04-25T08:42:17;1.90;;;1.80;;
1174;SDS011;576;48.418;10.074;2023-04-25T08:44:47;1.87;;;1.77;;
1174;SDS011;576;48.418;10.074;2023-04-25T08:47:16;1.67;;;1.57;;
1174;SDS011;576;48.418;10.074;2023-04-25T08:49:54;1.60;;;1.50;;
1174;SDS011;576;48.418;10.074;2023-04-25T08:52:23;2.60;;;1.93;;
1174;SDS011;576;48.418;10.074;2023-04-25T08:54:54;1.80;;;1.70;;
1174;SDS011;576;48.418;10.074;2023-04-25T08:57:26;2.67;;;2.10;;
1174;SDS011;576;48.418;10.074;2023-04-25T08:59:58;1.60;;;1.50;;
1174;SDS011;576;48.418;10.074;2023-04-25T09:02:32;2.43;;;1.70;;
1174;SDS011;576;48.418;10.074;2023-04-25T09:05:01;2.57;;;1.53;;
1174;SDS011;576;48.418;10.074;2023-04-25T09:07:31;2.10;;;1.90;;
1174;SDS011;576;48.418;10.074;2023-04-25T09:09:59;2.10;;;1.67;;
1174;SDS011;576;48.418;10.074;2023-04-25T09:12:33;1.83;;;1.73;;
1174;SDS011;576;48.418;10.074;2023-04-25T09:15:06;2.10;;;1.90;;
1174;SDS011;576;48.418;10.074;2023-04-25T09:18:05;2.10;;;2.00;;
1174;SDS011;576;48.418;10.074;2023-04-25T09:20:41;1.90;;;1.80;;
1174;SDS011;576;48.418;10.074;2023-04-25T09:23:28;2.60;;;2.03;;
1174;SDS011;576;48.418;10.074;2023-04-25T09:25:56;2.20;;;2.00;;
1174;SDS011;576;48.418;10.074;2023-04-25T09:28:25;1.77;;;1.67;;
1174;SDS011;576;48.418;10.074;2023-04-25T09:30:59;2.13;;;1.93;;
1174;SDS011;576;48.418;10.074;2023-04-25T09:33:35;2.10;;;1.93;;
1174;SDS011;576;48.418;10.074;2023-04-25T09:36:05;1.67;;;1.57;;
1174;SDS011;576;48.418;10.074;2023-04-25T09:39:04;8.73;;;2.17;;
1174;SDS011;576;48.418;10.074;2023-04-25T09:41:53;2.57;;;2.10;;
1174;SDS011;576;48.418;10.074;2023-04-25T09:44:22;1.90;;;1.80;;
1174;SDS011;576;48.418;10.074;2023-04-25T09:46:53;2.47;;;1.90;;
1174;SDS011;576;48.418;10.074;2023-04-25T09:49:25;1.80;;;1.70;;
1174;SDS011;576;48.418;10.074;2023-04-25T09:52:04;2.10;;;1.90;;
1174;SDS011;576;48.418;10.074;2023-04-25T09:54:41;2.70;;;2.30;;
1174;SDS011;576;48.418;10.074;2023-04-25T09:57:14;2.00;;;1.83;;
1174;SDS011;576;48.418;10.074;2023-04-25T09:59:44;3.20;;;2.13;;
1174;SDS011;576;48.418;10.074;2023-04-25T10:02:16;4.20;;;1.67;;
1174;SDS011;576;48.418;10.074;2023-04-25T10:04:48;3.83;;;2.20;;
1174;SDS011;576;48.418;10.074;2023-04-25T10:07:33;1.70;;;1.60;;
1174;SDS011;576;48.418;10.074;2023-04-25T10:10:08;2.17;;;2.07;;
1174;SDS011;576;48.418;10.074;2023-04-25T10:12:39;2.50;;;2.10;;
1174;SDS011;576;48.418;10.074;2023-04-25T10:15:10;2.23;;;1.83;;
1174;SDS011;576;48.418;10.074;2023-04-25T10:17:41;2.23;;;2.07;;
1174;SDS011;576;48.418;10.074;2023-04-25T10:20:10;2.70;;;1.80;;
1174;SDS011;576;48.418;10.074;2023-04-25T10:22:41;1.83;;;1.73;;
1174;SDS011;576;48.418;10.074;2023-04-25T10:25:09;2.00;;;1.80;;
1174;SDS011;576;48.418;10.074;2023-04-25T10:27:38;1.77;;;1.67;;
1174;SDS011;576;48.418;10.074;2023-04-25T10:30:07;1.80;;;1.70;;
1174;SDS011;576;48.418;10.074;2023-04-25T10:32:38;2.33;;;2.13;;
1174;SDS011;576;48.418;10.074;2023-04-25T10:35:13;2.17;;;1.63;;
1174;SDS011;576;48.418;10.074;2023-04-25T10:37:59;2.07;;;1.90;;
1174;SDS011;576;48.418;10.074;2023-04-25T10:40:29;2.00;;;1.80;;
1174;SDS011;576;48.418;10.074;2023-04-25T10:45:59;1.70;;;1.60;;
1174;SDS011;576;48.418;10.074;2023-04-25T10:48:29;1.90;;;1.60;;
1174;SDS011;576;48.418;10.074;2023-04-25T10:51:06;1.90;;;1.80;;
1174;SDS011;576;48.418;10.074;2023-04-25T10:53:36;1.80;;;1.70;;
1174;SDS011;576;48.418;10.074;2023-04-25T10:56:09;1.90;;;1.77;;
1174;SDS011;576;48.418;10.074;2023-04-25T10:58:43;2.20;;;2.10;;
1174;SDS011;576;48.418;10.074;2023-04-25T11:01:12;2.00;;;1.80;;
1174;SDS011;576;48.418;10.074;2023-04-25T11:03:42;2.10;;;1.90;;
1174;SDS011;576;48.418;10.074;2023-04-25T11:06:15;2.40;;;2.03;;
1174;SDS011;576;48.418;10.074;2023-04-25T11:08:50;1.90;;;1.67;;
1174;SDS011;576;48.418;10.074;2023-04-25T11:11:19;1.73;;;1.50;;
1174;SDS011;576;48.418;10.074;2023-04-25T11:13:48;1.50;;;1.40;;
1174;SDS011;576;48.418;10.074;2023-04-25T11:16:17;1.70;;;1.60;;
1174;SDS011;576;48.418;10.074;2023-04-25T11:18:56;2.43;;;1.83;;
1174;SDS011;576;48.418;10.074;2023-04-25T11:21:25;1.80;;;1.70;;
1174;SDS011;576;48.418;10.074;2023-04-25T11:23:54;2.07;;;1.87;;
1174;SDS011;576;48.418;10.074;2023-04-25T11:26:24;2.47;;;2.23;;
1174;SDS011;576;48.418;10.074;2023-04-25T11:28:56;2.90;;;1.93;;
1174;SDS011;576;48.418;10.074;2023-04-25T11:31:25;1.73;;;1.63;;
1174;SDS011;576;48.418;10.074;2023-04-25T11:33:56;2.17;;;1.80;;
1174;SDS011;576;48.418;10.074;2023-04-25T11:36:24;3.33;;;1.87;;
1174;SDS011;576;48.418;10.074;2023-04-25T11:38:53;7.03;;;2.03;;
1174;SDS011;576;48.418;10.074;2023-04-25T11:41:22;2.07;;;1.83;;
1174;SDS011;576;48.418;10.074;2023-04-25T11:43:50;1.57;;;1.43;;
1174;SDS011;576;48.418;10.074;2023-04-25T11:46:21;2.83;;;2.30;;
1174;SDS011;576;48.418;10.074;2023-04-25T11:48:49;2.20;;;2.00;;
1174;SDS011;576;48.418;10.074;2023-04-25T11:51:20;2.30;;;1.93;;
1174;SDS011;576;48.418;10.074;2023-04-25T11:53:48;1.80;;;1.70;;
1174;SDS011;576;48.418;10.074;2023-04-25T11:56:17;3.50;;;1.83;;
1174;SDS011;576;48.418;10.074;2023-04-25T11:58:54;1.70;;;1.60;;
1174;SDS011;576;48.418;10.074;2023-04-25T12:01:27;2.00;;;1.80;;
1174;SDS011;576;48.418;10.074;2023-04-25T12:04:10;2.63;;;2.03;;
1174;SDS011;576;48.418;10.074;2023-04-25T12:06:42;3.00;;;2.03;;
1174;SDS011;576;48.418;10.074;2023-04-25T12:09:13;1.87;;;1.73;;
1174;SDS011;576;48.418;10.074;2023-04-25T12:11:44;2.60;;;2.17;;
1174;SDS011;576;48.418;10.074;2023-04-25T12:14:20;2.10;;;1.73;;
1174;SDS011;576;48.418;10.074;2023-04-25T12:16:50;1.53;;;1.40;;
1174;SDS011;576;48.418;10.074;2023-04-25T12:19:19;2.43;;;1.90;;
1174;SDS011;576;48.418;10.074;2023-04-25T12:21:50;1.97;;;1.60;;
1174;SDS011;576;48.418;10.074;2023-04-25T12:24:25;6.03;;;1.77;;
1174;SDS011;576;48.418;10.074;2023-04-25T12:26:58;4.43;;;1.80;;
1174;SDS011;576;48.418;10.074;2023-04-25T12:29:29;1.57;;;1.47;;
1174;SDS011;576;48.418;10.074;2023-04-25T12:32:14;1.90;;;1.80;;
1174;SDS011;576;48.418;10.074;2023-04-25T12:34:43;3.43;;;1.67;;
1174;SDS011;576;48.418;10.074;2023-04-25T12:37:12;2.80;;;1.93;;
1174;SDS011;576;48.418;10.074;2023-04-25T12:39:41;2.17;;;1.97;;
1174;SDS011;576;48.418;10.074;2023-04-25T12:42:09;2.60;;;1.80;;
1174;SDS011;576;48.418;10.074;2023-04-25T12:44:38;1.50;;;1.40;;
1174;SDS011;576;48.418;10.074;2023-04-25T12:47:07;3.07;;;1.93;;
1174;SDS011;576;48.418;10.074;2023-04-25T12:49:36;1.87;;;1.70;;
1174;SDS011;576;48.418;10.074;2023-04-25T12:52:04;2.47;;;1.77;;
1174;SDS011;576;48.418;10.074;2023-04-25T12:54:35;3.23;;;1.67;;
1174;SDS011;576;48.418;10.074;2023-04-25T12:57:04;1.87;;;1.47;;
1174;SDS011;576;48.418;10.074;2023-04-25T12:59:33;1.40;;;1.30;;
1174;SDS011;576;48.418;10.074;2023-04-25T13:02:01;1.80;;;1.67;;
1174;SDS011;576;48.418;10.074;2023-04-25T13:04:29;2.63;;;1.80;;
1174;SDS011;576;48.418;10.074;2023-04-25T13:06:58;2.00;;;1.60;;
1174;SDS011;576;48.418;10.074;2023-04-25T13:09:26;2.03;;;1.83;;
1174;SDS011;576;48.418;10.074;2023-04-25T13:11:56;6.27;;;2.40;;
1174;SDS011;576;48.418;10.074;2023-04-25T13:14:25;2.77;;;1.60;;
1174;SDS011;576;48.418;10.074;2023-04-25T13:16:54;2.20;;;1.47;;
1174;SDS011;576;48.418;10.074;2023-04-25T13:19:22;2.00;;;1.73;;
1174;SDS011;576;48.418;10.074;2023-04-25T13:21:52;3.03;;;1.30;;
1174;SDS011;576;48.418;10.074;2023-04-25T13:24:21;2.40;;;1.47;;
1174;SDS011;576;48.418;10.074;2023-04-25T13:26:50;3.00;;;1.70;;
1174;SDS011;576;48.418;10.074;2023-04-25T13:29:19;3.63;;;1.40;;
1174;SDS011;576;48.418;10.074;2023-04-25T13:31:47;8.83;;;1.87;;
1174;SDS011;576;48.418;10.074;2023-04-25T13:34:16;1.67;;;1.57;;
1174;SDS011;576;48.418;10.074;2023-04-25T13:36:45;4.90;;;2.30;;
1174;SDS011;576;48.418;10.074;2023-04-25T13:39:14;1.33;;;1.10;;
1174;SDS011;576;48.418;10.074;2023-04-25T13:41:43;1.53;;;1.40;;
1174;SDS011;576;48.418;10.074;2023-04-25T13:44:12;1.87;;;1.60;;
1174;SDS011;576;48.418;10.074;2023-04-25T13:46:42;2.93;;;1.30;;
1174;SDS011;576;48.418;10.074;2023-04-25T13:49:13;2.70;;;1.70;;
1174;SDS011;576;48.418;10.074;2023-04-25T13:51:42;4.80;;;1.90;;
1174;SDS011;576;48.418;10.074;2023-04-25T13:54:10;3.97;;;1.70;;
1174;SDS011;576;48.418;10.074;2023-04-25T13:56:39;2.13;;;1.70;;
1174;SDS011;576;48.418;10.074;2023-04-25T13:59:08;2.83;;;1.70;;
1174;SDS011;576;48.418;10.074;2023-04-25T14:01:38;1.90;;;1.67;;
1174;SDS011;576;48.418;10.074;2023-04-25T14:04:08;2.53;;;1.57;;
1174;SDS011;576;48.418;10.074;2023-04-25T14:06:37;1.83;;;1.73;;
1174;SDS011;576;48.418;10.074;2023-04-25T14:09:06;3.43;;;1.97;;
1174;SDS011;576;48.418;10.074;2023-04-25T14:11:36;2.83;;;1.67;;
1174;SDS011;576;48.418;10.074;2023-04-25T14:14:05;4.13;;;2.20;;
1174;SDS011;576;48.418;10.074;2023-04-25T14:16:34;3.80;;;1.80;;
1174;SDS011;576;48.418;10.074;2023-04-25T14:19:03;2.40;;;1.40;;
1174;SDS011;576;48.418;10.074;2023-04-25T14:21:33;2.10;;;1.30;;
1174;SDS011;576;48.418;10.074;2023-04-25T14:24:02;1.60;;;1.23;;
1174;SDS011;576;48.418;10.074;2023-04-25T14:26:32;1.90;;;1.33;;
1174;SDS011;576;48.418;10.074;2023-04-25T14:29:02;2.03;;;1.83;;
1174;SDS011;576;48.418;10.074;2023-04-25T14:31:31;1.20;;;1.10;;
1174;SDS011;576;48.418;10.074;2023-04-25T14:34:00;2.70;;;1.93;;
1174;SDS011;576;48.418;10.074;2023-04-25T14:36:29;2.20;;;1.40;;
1174;SDS011;576;48.418;10.074;2023-04-25T14:39:00;3.90;;;1.33;;
1174;SDS011;576;48.418;10.074;2023-04-25T14:41:28;1.43;;;1.10;;
1174;SDS011;576;48.418;10.074;2023-04-25T14:43:57;1.70;;;1.40;;
1174;SDS011;576;48.418;10.074;2023-04-25T14:46:26;3.53;;;2.47;;
1174;SDS011;576;48.418;10.074;2023-04-25T14:48:55;1.50;;;1.40;;
1174;SDS011;576;48.418;10.074;2023-04-25T14:51:23;4.77;;;3.33;;
1174;SDS011;576;48.418;10.074;2023-04-25T14:53:52;2.07;;;1.97;;
1174;SDS011;576;48.418;10.074;2023-04-25T14:56:22;1.27;;;1.13;;
1174;SDS011;576;48.418;10.074;2023-04-25T14:58:51;1.80;;;1.60;;
1174;SDS011;576;48.418;10.074;2023-04-25T15:01:20;3.70;;;2.77;;
1174;SDS011;576;48.418;10.074;2023-04-25T15:03:50;1.10;;;1.10;;
1174;SDS011;576;48.418;10.074;2023-04-25T15:06:20;2.10;;;1.10;;
1174;SDS011;576;48.418;10.074;2023-04-25T15:08:48;2.13;;;1.57;;
1174;SDS011;576;48.418;10.074;2023-04-25T15:11:18;2.80;;;1.87;;
1174;SDS011;576;48.418;10.074;2023-04-25T15:13:48;1.63;;;1.43;;
1174;SDS011;576;48.418;10.074;2023-04-25T15:16:18;1.77;;;1.47;;
1174;SDS011;576;48.418;10.074;2023-04-25T15:18:46;1.23;;;1.10;;
1174;SDS011;576;48.418;10.074;2023-04-25T15:21:15;2.37;;;1.60;;
1174;SDS011;576;48.418;10.074;2023-04-25T15:23:43;1.30;;;1.20;;
1174;SDS011;576;48.418;10.074;2023-04-25T15:26:11;3.07;;;1.30;;
1174;SDS011;576;48.418;10.074;2023-04-25T15:28:39;3.00;;;1.70;;
1174;SDS011;576;48.418;10.074;2023-04-25T15:31:08;1.70;;;1.27;;
1174;SDS011;576;48.418;10.074;2023-04-25T15:33:37;2.10;;;1.40;;
1174;SDS011;576;48.418;10.074;2023-04-25T15:36:05;5.70;;;2.03;;
1174;SDS011;576;48.418;10.074;2023-04-25T15:38:34;1.97;;;1.80;;
1174;SDS011;576;48.418;10.074;2023-04-25T15:41:02;1.37;;;1.27;;
1174;SDS011;576;48.418;10.074;2023-04-25T15:43:32;5.43;;;1.47;;
1174;SDS011;576;48.418;10.074;2023-04-25T15:46:03;3.07;;;1.60;;
1174;SDS011;576;48.418;10.074;2023-04-25T15:48:34;2.30;;;1.23;;